sensor_id;sensor_type;location;lat;lon;timestamp;pressure;altitude;pressure_sealevel;temperature;humidity
62038;BME280;47991;42.974;12.082;2023-01-25T00:00:41;98591.96;;;0.50;84.28
62038;BME280;47991;42.974;12.082;2023-01-25T00:03:28;98586.42;;;0.44;84.81
62038;BME280;47991;42.974;12.082;2023-01-25T00:05:59;98585.27;;;0.47;84.77
62038;BME280;47991;42.974;12.082;2023-01-25T00:08:27;98582.49;;;0.55;85.20
62038;BME280;47991;42.974;12.082;2023-01-25T00:10:54;98580.27;;;0.63;85.04
62038;BME280;47991;42.974;12.082;2023-01-25T00:13:21;98578.33;;;0.62;84.95
62038;BME280;47991;42.974;12.082;2023-01-25T00:15:48;98573.85;;;0.57;84.57
62038;BME280;47991;42.974;12.082;2023-01-25T00:18:16;98568.73;;;0.53;84.86
62038;BME280;47991;42.974;12.082;2023-01-25T00:20:43;98563.14;;;0.53;85.01
62038;BME280;47991;42.974;12.082;2023-01-25T00:23:11;98564.66;;;0.58;84.77
62038;BME280;47991;42.974;12.082;2023-01-25T00:25:38;98563.81;;;0.66;85.30
62038;BME280;47991;42.974;12.082;2023-01-25T00:28:08;98559.73;;;0.70;84.89
62038;BME280;47991;42.974;12.082;2023-01-25T00:30:35;98556.75;;;0.70;84.59
62038;BME280;47991;42.974;12.082;2023-01-25T00:35:43;98564.29;;;0.43;85.02
62038;BME280;47991;42.974;12.082;2023-01-25T00:38:30;98562.67;;;0.34;85.25
62038;BME280;47991;42.974;12.082;2023-01-25T00:40:59;98559.64;;;0.37;86.64
62038;BME280;47991;42.974;12.082;2023-01-25T00:43:29;98550.08;;;0.45;87.16
62038;BME280;47991;42.974;12.082;2023-01-25T00:46:01;98551.64;;;0.52;87.67
62038;BME280;47991;42.974;12.082;2023-01-25T00:48:29;98549.98;;;0.56;86.65
62038;BME280;47991;42.974;12.082;2023-01-25T00:51:02;98549.33;;;0.58;85.97
62038;BME280;47991;42.974;12.082;2023-01-25T00:53:29;98555.36;;;0.47;85.13
62038;BME280;47991;42.974;12.082;2023-01-25T00:55:57;98558.93;;;0.30;85.36
62038;BME280;47991;42.974;12.082;2023-01-25T00:58:24;98557.27;;;0.19;85.99
62038;BME280;47991;42.974;12.082;2023-01-25T01:00:53;98558.25;;;0.17;85.72
62038;BME280;47991;42.974;12.082;2023-01-25T01:03:26;98558.80;;;0.25;86.69
62038;BME280;47991;42.974;12.082;2023-01-25T01:06:19;98552.37;;;0.39;87.63
62038;BME280;47991;42.974;12.082;2023-01-25T01:08:47;98557.65;;;0.48;90.20
62038;BME280;47991;42.974;12.082;2023-01-25T01:11:17;98557.29;;;0.34;89.25
62038;BME280;47991;42.974;12.082;2023-01-25T01:13:44;98554.97;;;0.25;87.90
62038;BME280;47991;42.974;12.082;2023-01-25T01:16:12;98549.14;;;0.21;86.88
62038;BME280;47991;42.974;12.082;2023-01-25T01:18:44;98548.27;;;0.20;86.65
62038;BME280;47991;42.974;12.082;2023-01-25T01:21:13;98548.59;;;0.20;86.59
62038;BME280;47991;42.974;12.082;2023-01-25T01:23:40;98546.45;;;0.17;86.29
62038;BME280;47991;42.974;12.082;2023-01-25T01:26:10;98544.53;;;0.18;86.67
62038;BME280;47991;42.974;12.082;2023-01-25T01:28:37;98536.30;;;0.22;86.78
62038;BME280;47991;42.974;12.082;2023-01-25T01:31:25;98533.70;;;0.29;87.19
62038;BME280;47991;42.974;12.082;2023-01-25T01:34:05;98524.25;;;0.41;86.70
62038;BME280;47991;42.974;12.082;2023-01-25T01:36:32;98523.11;;;0.52;86.48
62038;BME280;47991;42.974;12.082;2023-01-25T01:39:01;98519.83;;;0.60;86.31
62038;BME280;47991;42.974;12.082;2023-01-25T01:41:31;98517.73;;;0.68;86.33
62038;BME280;47991;42.974;12.082;2023-01-25T01:43:58;98513.63;;;0.71;86.18
62038;BME280;47991;42.974;12.082;2023-01-25T01:49:04;98515.38;;;0.79;86.07
62038;BME280;47991;42.974;12.082;2023-01-25T01:57:12;98508.31;;;0.74;86.54
62038;BME280;47991;42.974;12.082;2023-01-25T02:00:04;98509.94;;;0.54;86.58
62038;BME280;47991;42.974;12.082;2023-01-25T02:02:53;98503.91;;;0.43;86.01
62038;BME280;47991;42.974;12.082;2023-01-25T02:05:50;98497.79;;;0.40;86.12
62038;BME280;47991;42.974;12.082;2023-01-25T02:08:14;98495.45;;;0.45;86.39
62038;BME280;47991;42.974;12.082;2023-01-25T02:10:42;98498.33;;;0.49;86.18
62038;BME280;47991;42.974;12.082;2023-01-25T02:13:10;98491.37;;;0.56;86.08
62038;BME280;47991;42.974;12.082;2023-01-25T02:15:50;98488.45;;;0.66;85.83
62038;BME280;47991;42.974;12.082;2023-01-25T02:18:23;98487.16;;;0.78;86.01
62038;BME280;47991;42.974;12.082;2023-01-25T02:20:55;98482.04;;;0.83;86.16
62038;BME280;47991;42.974;12.082;2023-01-25T02:26:00;98470.71;;;0.99;86.30
62038;BME280;47991;42.974;12.082;2023-01-25T02:28:36;98464.60;;;1.07;86.16
62038;BME280;47991;42.974;12.082;2023-01-25T02:31:05;98463.55;;;1.15;86.06
62038;BME280;47991;42.974;12.082;2023-01-25T02:33:32;98464.09;;;1.16;86.11
62038;BME280;47991;42.974;12.082;2023-01-25T02:36:19;98465.39;;;1.20;86.20
62038;BME280;47991;42.974;12.082;2023-01-25T02:38:58;98463.46;;;1.28;86.56
62038;BME280;47991;42.974;12.082;2023-01-25T02:41:36;98457.66;;;1.34;86.51
62038;BME280;47991;42.974;12.082;2023-01-25T02:44:07;98451.50;;;1.39;86.17
62038;BME280;47991;42.974;12.082;2023-01-25T02:46:37;98451.74;;;1.43;86.58
62038;BME280;47991;42.974;12.082;2023-01-25T02:49:06;98446.10;;;1.49;86.51
62038;BME280;47991;42.974;12.082;2023-01-25T02:51:35;98440.98;;;1.55;86.45
62038;BME280;47991;42.974;12.082;2023-01-25T02:54:05;98438.59;;;1.58;86.45
62038;BME280;47991;42.974;12.082;2023-01-25T02:56:33;98432.86;;;1.59;86.48
62038;BME280;47991;42.974;12.082;2023-01-25T02:59:02;98432.81;;;1.57;86.51
62038;BME280;47991;42.974;12.082;2023-01-25T03:01:35;98430.23;;;1.49;86.78
62038;BME280;47991;42.974;12.082;2023-01-25T03:04:04;98424.85;;;1.40;86.58
62038;BME280;47991;42.974;12.082;2023-01-25T03:06:33;98427.28;;;1.30;86.74
62038;BME280;47991;42.974;12.082;2023-01-25T03:09:04;98429.38;;;1.21;86.37
62038;BME280;47991;42.974;12.082;2023-01-25T03:11:32;98423.59;;;1.10;86.28
62038;BME280;47991;42.974;12.082;2023-01-25T03:14:00;98431.10;;;1.03;86.52
62038;BME280;47991;42.974;12.082;2023-01-25T03:16:29;98426.27;;;0.96;86.94
62038;BME280;47991;42.974;12.082;2023-01-25T03:18:57;98425.60;;;0.98;87.46
62038;BME280;47991;42.974;12.082;2023-01-25T03:21:27;98418.39;;;1.03;87.15
62038;BME280;47991;42.974;12.082;2023-01-25T03:23:55;98418.95;;;1.05;87.46
62038;BME280;47991;42.974;12.082;2023-01-25T03:26:26;98416.81;;;1.02;88.24
62038;BME280;47991;42.974;12.082;2023-01-25T03:29:16;98413.69;;;1.03;87.76
62038;BME280;47991;42.974;12.082;2023-01-25T03:31:43;98416.99;;;1.03;87.35
62038;BME280;47991;42.974;12.082;2023-01-25T03:34:11;98419.77;;;0.85;86.58
62038;BME280;47991;42.974;12.082;2023-01-25T03:36:40;98424.29;;;0.76;87.35
62038;BME280;47991;42.974;12.082;2023-01-25T03:39:10;98424.86;;;0.79;87.58
62038;BME280;47991;42.974;12.082;2023-01-25T03:41:41;98415.08;;;0.86;87.99
62038;BME280;47991;42.974;12.082;2023-01-25T03:44:10;98418.84;;;0.91;88.25
62038;BME280;47991;42.974;12.082;2023-01-25T03:46:39;98412.21;;;0.98;88.55
62038;BME280;47991;42.974;12.082;2023-01-25T03:49:07;98405.16;;;1.03;88.31
62038;BME280;47991;42.974;12.082;2023-01-25T03:51:35;98399.36;;;1.09;87.71
62038;BME280;47991;42.974;12.082;2023-01-25T03:54:03;98391.69;;;1.18;87.43
62038;BME280;47991;42.974;12.082;2023-01-25T03:56:32;98392.39;;;1.18;86.97
62038;BME280;47991;42.974;12.082;2023-01-25T03:59:17;98391.42;;;1.04;86.61
62038;BME280;47991;42.974;12.082;2023-01-25T04:01:45;98389.10;;;1.01;87.17
62038;BME280;47991;42.974;12.082;2023-01-25T04:04:12;98383.35;;;0.92;86.56
62038;BME280;47991;42.974;12.082;2023-01-25T04:06:41;98387.90;;;0.84;87.62
62038;BME280;47991;42.974;12.082;2023-01-25T04:09:08;98382.13;;;0.92;87.63
62038;BME280;47991;42.974;12.082;2023-01-25T04:11:40;98377.05;;;0.98;87.32
62038;BME280;47991;42.974;12.082;2023-01-25T04:14:11;98372.77;;;1.03;87.14
62038;BME280;47991;42.974;12.082;2023-01-25T04:16:46;98369.95;;;1.10;87.07
62038;BME280;47991;42.974;12.082;2023-01-25T04:19:27;98361.34;;;1.16;87.11
62038;BME280;47991;42.974;12.082;2023-01-25T04:21:57;98362.56;;;1.16;86.61
62038;BME280;47991;42.974;12.082;2023-01-25T04:24:27;98361.15;;;0.96;86.40
62038;BME280;47991;42.974;12.082;2023-01-25T04:26:59;98366.09;;;0.72;86.36
62038;BME280;47991;42.974;12.082;2023-01-25T04:29:27;98368.07;;;0.59;86.83
62038;BME280;47991;42.974;12.082;2023-01-25T04:31:55;98365.02;;;0.54;87.38
62038;BME280;47991;42.974;12.082;2023-01-25T04:34:22;98361.91;;;0.55;87.66
62038;BME280;47991;42.974;12.082;2023-01-25T04:36:53;98362.06;;;0.63;88.03
62038;BME280;47991;42.974;12.082;2023-01-25T04:39:23;98361.13;;;0.60;87.80
62038;BME280;47991;42.974;12.082;2023-01-25T04:41:51;98357.05;;;0.56;87.31
62038;BME280;47991;42.974;12.082;2023-01-25T04:44:19;98354.88;;;0.52;87.50
62038;BME280;47991;42.974;12.082;2023-01-25T04:46:46;98352.71;;;0.48;87.85
62038;BME280;47991;42.974;12.082;2023-01-25T04:49:17;98354.02;;;0.44;87.48
62038;BME280;47991;42.974;12.082;2023-01-25T04:51:44;98350.46;;;0.32;87.48
62038;BME280;47991;42.974;12.082;2023-01-25T04:54:11;98353.39;;;0.23;87.55
62038;BME280;47991;42.974;12.082;2023-01-25T04:56:38;98352.72;;;0.24;88.01
62038;BME280;47991;42.974;12.082;2023-01-25T04:59:05;98354.36;;;0.36;88.09
62038;BME280;47991;42.974;12.082;2023-01-25T05:01:32;98358.13;;;0.49;88.31
62038;BME280;47991;42.974;12.082;2023-01-25T05:03:59;98356.58;;;0.50;87.73
62038;BME280;47991;42.974;12.082;2023-01-25T05:06:37;98356.11;;;0.36;86.81
62038;BME280;47991;42.974;12.082;2023-01-25T05:09:03;98358.11;;;0.16;87.21
62038;BME280;47991;42.974;12.082;2023-01-25T05:11:30;98355.41;;;0.05;87.58
62038;BME280;47991;42.974;12.082;2023-01-25T05:14:05;98356.50;;;-0.02;88.64
62038;BME280;47991;42.974;12.082;2023-01-25T05:16:33;98357.11;;;0.10;88.53
62038;BME280;47991;42.974;12.082;2023-01-25T05:19:00;98354.34;;;0.18;87.93
62038;BME280;47991;42.974;12.082;2023-01-25T05:21:36;98354.00;;;0.11;87.19
62038;BME280;47991;42.974;12.082;2023-01-25T05:24:22;98356.38;;;0.01;87.21
62038;BME280;47991;42.974;12.082;2023-01-25T05:26:49;98360.18;;;-0.07;87.41
62038;BME280;47991;42.974;12.082;2023-01-25T05:29:56;98363.40;;;-0.11;87.52
62038;BME280;47991;42.974;12.082;2023-01-25T05:32:43;98359.69;;;-0.14;88.24
62038;BME280;47991;42.974;12.082;2023-01-25T05:35:10;98354.77;;;-0.16;87.76
62038;BME280;47991;42.974;12.082;2023-01-25T05:37:38;98355.79;;;-0.17;87.87
62038;BME280;47991;42.974;12.082;2023-01-25T05:40:07;98357.25;;;-0.22;87.93
62038;BME280;47991;42.974;12.082;2023-01-25T05:42:37;98361.32;;;-0.26;87.93
62038;BME280;47991;42.974;12.082;2023-01-25T05:45:06;98357.47;;;-0.27;87.82
62038;BME280;47991;42.974;12.082;2023-01-25T05:47:34;98358.83;;;-0.28;87.86
62038;BME280;47991;42.974;12.082;2023-01-25T05:50:02;98361.09;;;-0.20;88.39
62038;BME280;47991;42.974;12.082;2023-01-25T05:52:45;98355.89;;;-0.13;88.10
62038;BME280;47991;42.974;12.082;2023-01-25T05:55:15;98358.38;;;-0.10;88.67
62038;BME280;47991;42.974;12.082;2023-01-25T05:57:43;98359.33;;;0.01;88.87
62038;BME280;47991;42.974;12.082;2023-01-25T06:00:14;98361.69;;;0.05;88.70
62038;BME280;47991;42.974;12.082;2023-01-25T06:02:41;98356.33;;;0.15;88.56
62038;BME280;47991;42.974;12.082;2023-01-25T06:05:12;98353.52;;;0.21;88.06
62038;BME280;47991;42.974;12.082;2023-01-25T06:07:39;98354.21;;;0.05;87.50
62038;BME280;47991;42.974;12.082;2023-01-25T06:10:07;98351.67;;;0.00;88.25
62038;BME280;47991;42.974;12.082;2023-01-25T06:12:34;98353.52;;;-0.03;88.09
62038;BME280;47991;42.974;12.082;2023-01-25T06:15:02;98354.43;;;-0.08;88.11
62038;BME280;47991;42.974;12.082;2023-01-25T06:17:29;98355.71;;;-0.13;88.23
62038;BME280;47991;42.974;12.082;2023-01-25T06:20:10;98358.23;;;-0.09;88.68
62038;BME280;47991;42.974;12.082;2023-01-25T06:22:41;98350.77;;;-0.01;88.85
62038;BME280;47991;42.974;12.082;2023-01-25T06:25:17;98352.48;;;0.06;88.72
62038;BME280;47991;42.974;12.082;2023-01-25T06:27:44;98344.39;;;0.16;88.86
62038;BME280;47991;42.974;12.082;2023-01-25T06:30:12;98341.86;;;0.20;88.58
62038;BME280;47991;42.974;12.082;2023-01-25T06:32:39;98345.60;;;0.25;88.79
62038;BME280;47991;42.974;12.082;2023-01-25T06:35:07;98336.56;;;0.32;88.50
62038;BME280;47991;42.974;12.082;2023-01-25T06:37:34;98329.16;;;0.36;88.48
62038;BME280;47991;42.974;12.082;2023-01-25T06:40:01;98330.21;;;0.37;88.44
62038;BME280;47991;42.974;12.082;2023-01-25T06:42:28;98326.85;;;0.42;88.28
62038;BME280;47991;42.974;12.082;2023-01-25T06:44:55;98328.91;;;0.42;88.08
62038;BME280;47991;42.974;12.082;2023-01-25T06:47:22;98332.31;;;0.21;87.45
62038;BME280;47991;42.974;12.082;2023-01-25T06:49:51;98337.30;;;0.10;88.17
62038;BME280;47991;42.974;12.082;2023-01-25T06:52:18;98335.41;;;0.04;88.44
62038;BME280;47991;42.974;12.082;2023-01-25T06:54:44;98333.62;;;0.01;88.30
62038;BME280;47991;42.974;12.082;2023-01-25T06:57:11;98330.42;;;-0.02;88.61
62038;BME280;47991;42.974;12.082;2023-01-25T06:59:41;98335.08;;;0.04;89.03
62038;BME280;47991;42.974;12.082;2023-01-25T07:02:14;98334.56;;;0.05;89.66
62038;BME280;47991;42.974;12.082;2023-01-25T07:04:41;98335.98;;;0.07;89.05
62038;BME280;47991;42.974;12.082;2023-01-25T07:07:08;98330.66;;;0.17;89.06
62038;BME280;47991;42.974;12.082;2023-01-25T07:09:35;98320.33;;;0.30;89.03
62038;BME280;47991;42.974;12.082;2023-01-25T07:12:06;98314.18;;;0.53;89.63
62038;BME280;47991;42.974;12.082;2023-01-25T07:14:33;98312.86;;;0.74;89.52
62038;BME280;47991;42.974;12.082;2023-01-25T07:17:01;98312.16;;;0.83;89.85
62038;BME280;47991;42.974;12.082;2023-01-25T07:19:31;98311.15;;;0.85;89.00
62038;BME280;47991;42.974;12.082;2023-01-25T07:21:57;98313.15;;;0.80;88.42
62038;BME280;47991;42.974;12.082;2023-01-25T07:24:24;98316.10;;;0.80;88.73
62038;BME280;47991;42.974;12.082;2023-01-25T07:26:52;98313.77;;;0.85;88.50
62038;BME280;47991;42.974;12.082;2023-01-25T07:29:19;98307.48;;;0.93;88.76
62038;BME280;47991;42.974;12.082;2023-01-25T07:31:46;98301.39;;;1.13;88.86
62038;BME280;47991;42.974;12.082;2023-01-25T07:34:15;98303.11;;;1.42;89.12
62038;BME280;47991;42.974;12.082;2023-01-25T07:36:42;98293.55;;;1.77;88.67
62038;BME280;47991;42.974;12.082;2023-01-25T07:39:14;98289.98;;;2.09;88.20
62038;BME280;47991;42.974;12.082;2023-01-25T07:41:42;98293.41;;;2.30;87.57
62038;BME280;47991;42.974;12.082;2023-01-25T07:44:12;98298.61;;;2.41;86.45
62038;BME280;47991;42.974;12.082;2023-01-25T07:46:44;98297.39;;;2.28;85.42
62038;BME280;47991;42.974;12.082;2023-01-25T07:49:11;98298.84;;;2.18;85.96
62038;BME280;47991;42.974;12.082;2023-01-25T07:51:38;98296.27;;;2.21;86.40
62038;BME280;47991;42.974;12.082;2023-01-25T07:54:05;98290.67;;;2.34;86.77
62038;BME280;47991;42.974;12.082;2023-01-25T07:56:34;98288.24;;;2.51;86.76
62038;BME280;47991;42.974;12.082;2023-01-25T07:59:03;98289.20;;;2.72;86.44
62038;BME280;47991;42.974;12.082;2023-01-25T08:01:31;98292.30;;;2.84;85.83
62038;BME280;47991;42.974;12.082;2023-01-25T08:04:00;98294.34;;;2.78;85.76
62038;BME280;47991;42.974;12.082;2023-01-25T08:06:33;98289.86;;;2.85;86.62
62038;BME280;47991;42.974;12.082;2023-01-25T08:09:14;98285.02;;;3.06;86.85
62038;BME280;47991;42.974;12.082;2023-01-25T08:11:42;98275.30;;;3.33;86.83
62038;BME280;47991;42.974;12.082;2023-01-25T08:14:10;98276.21;;;3.58;86.94
62038;BME280;47991;42.974;12.082;2023-01-25T08:16:41;98275.69;;;3.82;87.15
62038;BME280;47991;42.974;12.082;2023-01-25T08:19:09;98275.94;;;3.94;88.00
62038;BME280;47991;42.974;12.082;2023-01-25T08:21:37;98277.94;;;4.11;87.64
62038;BME280;47991;42.974;12.082;2023-01-25T08:24:05;98276.64;;;4.29;85.68
62038;BME280;47991;42.974;12.082;2023-01-25T08:26:34;98277.41;;;4.46;85.00
62038;BME280;47991;42.974;12.082;2023-01-25T08:29:02;98269.79;;;4.67;84.20
62038;BME280;47991;42.974;12.082;2023-01-25T08:31:31;98272.45;;;4.77;83.28
62038;BME280;47991;42.974;12.082;2023-01-25T08:34:02;98274.05;;;4.88;83.41
62038;BME280;47991;42.974;12.082;2023-01-25T08:36:30;98268.47;;;5.02;82.27
62038;BME280;47991;42.974;12.082;2023-01-25T08:39:05;98264.83;;;5.24;82.50
62038;BME280;47991;42.974;12.082;2023-01-25T08:41:34;98264.66;;;5.42;82.31
62038;BME280;47991;42.974;12.082;2023-01-25T08:44:01;98261.33;;;5.57;81.23
62038;BME280;47991;42.974;12.082;2023-01-25T08:46:35;98257.10;;;5.71;81.33
62038;BME280;47991;42.974;12.082;2023-01-25T08:49:02;98256.04;;;5.83;80.78
62038;BME280;47991;42.974;12.082;2023-01-25T08:51:31;98253.40;;;5.90;79.81
62038;BME280;47991;42.974;12.082;2023-01-25T08:54:03;98252.70;;;5.96;78.39
62038;BME280;47991;42.974;12.082;2023-01-25T08:56:36;98255.50;;;5.97;77.92
62038;BME280;47991;42.974;12.082;2023-01-25T08:59:04;98251.30;;;6.02;78.04
62038;BME280;47991;42.974;12.082;2023-01-25T09:01:35;98250.95;;;5.98;77.56
62038;BME280;47991;42.974;12.082;2023-01-25T09:04:13;98247.08;;;5.91;77.94
62038;BME280;47991;42.974;12.082;2023-01-25T09:06:41;98247.43;;;5.87;78.17
62038;BME280;47991;42.974;12.082;2023-01-25T09:09:11;98246.02;;;5.88;78.48
62038;BME280;47991;42.974;12.082;2023-01-25T09:11:38;98247.77;;;5.90;79.03
62038;BME280;47991;42.974;12.082;2023-01-25T09:14:06;98243.93;;;5.97;79.49
62038;BME280;47991;42.974;12.082;2023-01-25T09:16:33;98245.32;;;6.07;78.50
62038;BME280;47991;42.974;12.082;2023-01-25T09:19:02;98245.47;;;6.16;77.21
62038;BME280;47991;42.974;12.082;2023-01-25T09:21:31;98243.33;;;6.25;78.10
62038;BME280;47991;42.974;12.082;2023-01-25T09:23:59;98243.12;;;6.34;77.23
62038;BME280;47991;42.974;12.082;2023-01-25T09:26:26;98246.73;;;6.51;78.64
62038;BME280;47991;42.974;12.082;2023-01-25T09:28:53;98245.60;;;6.70;78.52
62038;BME280;47991;42.974;12.082;2023-01-25T09:31:23;98246.90;;;6.88;77.32
62038;BME280;47991;42.974;12.082;2023-01-25T09:34:19;98241.39;;;6.96;75.19
62038;BME280;47991;42.974;12.082;2023-01-25T09:36:48;98243.38;;;6.91;74.55
62038;BME280;47991;42.974;12.082;2023-01-25T09:39:16;98239.54;;;7.11;74.93
62038;BME280;47991;42.974;12.082;2023-01-25T09:42:10;98237.98;;;7.53;72.01
62038;BME280;47991;42.974;12.082;2023-01-25T09:45:06;98237.66;;;8.06;73.13
62038;BME280;47991;42.974;12.082;2023-01-25T09:50:32;98223.56;;;8.92;68.90
62038;BME280;47991;42.974;12.082;2023-01-25T09:56:19;98224.43;;;9.80;65.87
62038;BME280;47991;42.974;12.082;2023-01-25T09:58:51;98210.69;;;12.07;60.82
62038;BME280;47991;42.974;12.082;2023-01-25T10:03:58;98190.56;;;15.66;50.53
62038;BME280;47991;42.974;12.082;2023-01-25T10:06:38;98192.14;;;16.18;46.07
62038;BME280;47991;42.974;12.082;2023-01-25T10:11:44;98188.98;;;17.72;42.83
62038;BME280;47991;42.974;12.082;2023-01-25T10:14:16;98193.48;;;17.54;43.81
62038;BME280;47991;42.974;12.082;2023-01-25T10:22:23;98185.20;;;17.00;41.42
62038;BME280;47991;42.974;12.082;2023-01-25T10:30:29;98167.91;;;18.14;39.09
62038;BME280;47991;42.974;12.082;2023-01-25T10:33:06;98164.91;;;18.99;38.34
62038;BME280;47991;42.974;12.082;2023-01-25T10:35:37;98157.98;;;19.05;36.46
62038;BME280;47991;42.974;12.082;2023-01-25T10:38:27;98159.29;;;18.30;37.16
62038;BME280;47991;42.974;12.082;2023-01-25T10:43:31;98164.52;;;15.71;41.71
62038;BME280;47991;42.974;12.082;2023-01-25T10:45:58;98170.28;;;14.23;44.54
62038;BME280;47991;42.974;12.082;2023-01-25T10:48:29;98171.35;;;13.04;47.12
62038;BME280;47991;42.974;12.082;2023-01-25T10:50:58;98170.54;;;12.30;48.73
62038;BME280;47991;42.974;12.082;2023-01-25T10:53:38;98174.00;;;11.68;50.34
62038;BME280;47991;42.974;12.082;2023-01-25T10:56:23;98171.86;;;10.66;52.72
62038;BME280;47991;42.974;12.082;2023-01-25T10:59:22;98173.44;;;9.89;55.29
62038;BME280;47991;42.974;12.082;2023-01-25T11:01:50;98176.11;;;9.48;56.65
62038;BME280;47991;42.974;12.082;2023-01-25T11:04:33;98167.52;;;9.13;57.24
62038;BME280;47991;42.974;12.082;2023-01-25T11:07:03;98167.66;;;9.04;58.22
62038;BME280;47991;42.974;12.082;2023-01-25T11:09:36;98159.73;;;8.93;58.58
62038;BME280;47991;42.974;12.082;2023-01-25T11:12:15;98155.34;;;8.91;59.34
62038;BME280;47991;42.974;12.082;2023-01-25T11:14:45;98151.13;;;8.79;60.01
62038;BME280;47991;42.974;12.082;2023-01-25T11:17:30;98142.76;;;8.72;59.93
62038;BME280;47991;42.974;12.082;2023-01-25T11:22:53;98130.02;;;8.51;60.39
62038;BME280;47991;42.974;12.082;2023-01-25T11:25:45;98123.13;;;8.39;60.91
62038;BME280;47991;42.974;12.082;2023-01-25T11:28:23;98119.04;;;8.41;61.46
62038;BME280;47991;42.974;12.082;2023-01-25T11:30:51;98118.65;;;8.31;61.96
62038;BME280;47991;42.974;12.082;2023-01-25T11:33:20;98109.87;;;8.28;62.12
62038;BME280;47991;42.974;12.082;2023-01-25T11:36:03;98102.46;;;8.30;61.76
62038;BME280;47991;42.974;12.082;2023-01-25T11:38:34;98094.55;;;8.29;60.96
62038;BME280;47991;42.974;12.082;2023-01-25T11:41:19;98091.23;;;8.27;60.92
62038;BME280;47991;42.974;12.082;2023-01-25T11:46:54;98084.20;;;8.26;60.51
62038;BME280;47991;42.974;12.082;2023-01-25T11:49:46;98081.88;;;8.15;60.90
62038;BME280;47991;42.974;12.082;2023-01-25T11:55:27;98067.95;;;8.16;61.43
62038;BME280;47991;42.974;12.082;2023-01-25T11:58:25;98059.51;;;8.15;61.00
62038;BME280;47991;42.974;12.082;2023-01-25T12:06:29;98058.91;;;8.06;62.12
62038;BME280;47991;42.974;12.082;2023-01-25T12:09:31;98055.77;;;7.93;61.70
62038;BME280;47991;42.974;12.082;2023-01-25T12:15:26;98055.41;;;7.93;62.31
62038;BME280;47991;42.974;12.082;2023-01-25T12:26:25;98045.02;;;8.07;62.40
62038;BME280;47991;42.974;12.082;2023-01-25T12:32:02;98042.95;;;8.02;61.86
62038;BME280;47991;42.974;12.082;2023-01-25T12:34:35;98045.45;;;8.13;61.77
62038;BME280;47991;42.974;12.082;2023-01-25T12:37:34;98040.44;;;8.05;61.06
62038;BME280;47991;42.974;12.082;2023-01-25T12:40:15;98037.47;;;8.05;61.32
62038;BME280;47991;42.974;12.082;2023-01-25T12:42:53;98026.73;;;8.03;61.83
62038;BME280;47991;42.974;12.082;2023-01-25T12:45:34;98020.69;;;7.96;61.87
62038;BME280;47991;42.974;12.082;2023-01-25T12:48:17;98020.20;;;7.92;61.84
62038;BME280;47991;42.974;12.082;2023-01-25T12:50:50;98013.10;;;7.97;62.60
62038;BME280;47991;42.974;12.082;2023-01-25T12:53:30;98010.23;;;8.14;61.63
62038;BME280;47991;42.974;12.082;2023-01-25T12:59:02;98003.22;;;8.69;59.72
62038;BME280;47991;42.974;12.082;2023-01-25T13:07:23;97987.10;;;8.93;58.16
62038;BME280;47991;42.974;12.082;2023-01-25T13:09:57;97986.94;;;9.11;58.23
62038;BME280;47991;42.974;12.082;2023-01-25T13:12:26;97983.66;;;9.16;57.80
62038;BME280;47991;42.974;12.082;2023-01-25T13:14:53;97977.80;;;9.09;56.32
62038;BME280;47991;42.974;12.082;2023-01-25T13:17:29;97979.29;;;9.05;56.68
62038;BME280;47991;42.974;12.082;2023-01-25T13:20:00;97982.82;;;9.06;56.16
62038;BME280;47991;42.974;12.082;2023-01-25T13:22:54;97981.38;;;8.98;56.10
62038;BME280;47991;42.974;12.082;2023-01-25T13:25:25;97977.88;;;9.05;55.64
62038;BME280;47991;42.974;12.082;2023-01-25T13:30:59;97967.80;;;9.42;55.45
62038;BME280;47991;42.974;12.082;2023-01-25T13:33:33;97966.70;;;9.45;54.67
62038;BME280;47991;42.974;12.082;2023-01-25T13:36:36;97965.46;;;9.45;54.54
62038;BME280;47991;42.974;12.082;2023-01-25T13:42:14;97964.70;;;9.39;54.75
62038;BME280;47991;42.974;12.082;2023-01-25T13:44:46;97962.40;;;9.29;53.83
62038;BME280;47991;42.974;12.082;2023-01-25T13:47:16;97968.90;;;9.32;54.82
62038;BME280;47991;42.974;12.082;2023-01-25T13:52:24;97964.67;;;9.05;54.74
62038;BME280;47991;42.974;12.082;2023-01-25T13:55:14;97966.30;;;8.83;55.35
62038;BME280;47991;42.974;12.082;2023-01-25T13:57:44;97959.08;;;8.53;55.13
62038;BME280;47991;42.974;12.082;2023-01-25T14:00:15;97956.49;;;8.37;55.86
62038;BME280;47991;42.974;12.082;2023-01-25T14:02:43;97949.88;;;8.21;56.40
62038;BME280;47991;42.974;12.082;2023-01-25T14:05:23;97951.55;;;8.04;57.28
62038;BME280;47991;42.974;12.082;2023-01-25T14:07:55;97948.70;;;8.06;57.29
62038;BME280;47991;42.974;12.082;2023-01-25T14:10:32;97947.82;;;8.07;57.81
62038;BME280;47991;42.974;12.082;2023-01-25T14:12:59;97954.95;;;8.01;57.89
62038;BME280;47991;42.974;12.082;2023-01-25T14:15:31;97962.99;;;8.05;58.27
62038;BME280;47991;42.974;12.082;2023-01-25T14:18:18;97969.13;;;8.07;58.68
62038;BME280;47991;42.974;12.082;2023-01-25T14:20:47;97966.83;;;8.07;58.46
62038;BME280;47991;42.974;12.082;2023-01-25T14:23:28;97967.26;;;8.14;58.70
62038;BME280;47991;42.974;12.082;2023-01-25T14:25:58;97967.14;;;8.21;58.58
62038;BME280;47991;42.974;12.082;2023-01-25T14:28:28;97964.06;;;8.27;59.22
62038;BME280;47991;42.974;12.082;2023-01-25T14:30:57;97962.27;;;8.40;58.71
62038;BME280;47991;42.974;12.082;2023-01-25T14:33:30;97964.26;;;8.49;58.70
62038;BME280;47991;42.974;12.082;2023-01-25T14:36:11;97961.43;;;8.59;58.77
62038;BME280;47991;42.974;12.082;2023-01-25T14:38:46;97962.46;;;8.71;58.93
62038;BME280;47991;42.974;12.082;2023-01-25T14:41:35;97957.77;;;8.47;58.51
62038;BME280;47991;42.974;12.082;2023-01-25T14:44:05;97952.13;;;8.47;58.63
62038;BME280;47991;42.974;12.082;2023-01-25T14:46:41;97956.08;;;8.41;59.01
62038;BME280;47991;42.974;12.082;2023-01-25T14:49:22;97955.39;;;8.40;59.06
62038;BME280;47991;42.974;12.082;2023-01-25T14:52:09;97953.05;;;8.32;59.11